Time;durP1;ratioP1;P1;durP2;ratioP2;P2;SDS_P1;SDS_P2;PMS_P1;PMS_P2;Temp;Humidity;BMP_temperature;BMP_pressure;BME280_temperature;BME280_humidity;BME280_pressure;Samples;Min_cycle;Max_cycle;Signal;HPM_P1;HPM_P2
2021/11/21 00:01:36;;;;;;;79.28;37.63;;;6.90;99.90;;;;;;4996116;28;20045;-82
2021/11/21 00:04:03;;;;;;;94.82;42.10;;;6.90;99.90;;;;;;5008685;28;20096;-82
2021/11/21 00:06:30;;;;;;;86.68;41.10;;;6.90;99.90;;;;;;5002822;28;20513;-82
2021/11/21 00:08:56;;;;;;;85.45;39.83;;;6.90;99.90;;;;;;5011951;28;20058;-83
2021/11/21 00:11:23;;;;;;;83.97;39.20;;;6.90;99.90;;;;;;5000808;28;20060;-81
2021/11/21 00:13:51;;;;;;;86.00;38.50;;;6.90;99.90;;;;;;5010171;28;20633;-82
2021/11/21 00:16:19;;;;;;;84.85;38.92;;;6.90;99.90;;;;;;4992127;28;20064;-83
2021/11/21 00:18:45;;;;;;;78.15;37.38;;;6.90;99.90;;;;;;4991650;28;20050;-83
2021/11/21 00:21:12;;;;;;;81.95;37.88;;;6.90;99.90;;;;;;5006687;28;20149;-82
2021/11/21 00:23:39;;;;;;;85.40;39.28;;;6.90;99.90;;;;;;4975583;28;20349;-83
2021/11/21 00:26:06;;;;;;;82.82;36.47;;;6.90;99.90;;;;;;5003456;28;20053;-80
2021/11/21 00:28:33;;;;;;;75.22;34.03;;;6.90;99.90;;;;;;5011688;28;20041;-80
2021/11/21 00:31:00;;;;;;;76.25;36.60;;;6.90;99.90;;;;;;4994201;28;20219;-81
2021/11/21 00:33:27;;;;;;;80.28;34.47;;;7.00;99.90;;;;;;5011831;28;20176;-80
2021/11/21 00:35:54;;;;;;;75.00;36.05;;;7.00;99.90;;;;;;5017757;28;20132;-81
2021/11/21 00:38:20;;;;;;;74.50;35.38;;;7.00;99.90;;;;;;5012006;28;20044;-81
2021/11/21 00:40:48;;;;;;;76.38;35.70;;;7.00;99.90;;;;;;5008220;28;20076;-81
2021/11/21 00:43:15;;;;;;;75.50;33.40;;;7.00;99.90;;;;;;5011080;28;20099;-81
2021/11/21 00:45:41;;;;;;;72.88;32.83;;;7.00;99.90;;;;;;5010515;28;20053;-81
2021/11/21 00:48:08;;;;;;;75.43;34.13;;;7.00;99.90;;;;;;4995255;28;20053;-82
2021/11/21 00:50:35;;;;;;;77.03;33.10;;;7.00;99.90;;;;;;5027426;28;20096;-81
2021/11/21 00:53:03;;;;;;;70.38;32.10;;;7.00;99.90;;;;;;5011783;28;20045;-83
2021/11/21 00:55:35;;;;;;;71.50;32.00;;;7.00;99.90;;;;;;5027250;28;20045;-82
2021/11/21 00:58:10;;;;;;;79.18;34.97;;;7.00;99.90;;;;;;5007930;28;20042;-84
2021/11/21 01:00:43;;;;;;;76.28;35.55;;;7.00;99.90;;;;;;4990898;28;20052;-83
2021/11/21 01:03:13;;;;;;;76.28;34.42;;;7.00;99.90;;;;;;4999751;28;20093;-84
2021/11/21 01:05:42;;;;;;;67.90;32.60;;;7.00;99.90;;;;;;4998760;28;20620;-82
2021/11/21 01:08:10;;;;;;;70.88;31.63;;;7.00;99.90;;;;;;5010752;28;20056;-82
2021/11/21 01:10:37;;;;;;;76.28;32.67;;;7.00;99.90;;;;;;4993924;28;20042;-82
2021/11/21 01:13:05;;;;;;;73.15;32.10;;;6.90;99.90;;;;;;5019686;28;20053;-82
2021/11/21 01:15:33;;;;;;;72.63;29.67;;;6.90;99.90;;;;;;4995895;28;20048;-82
2021/11/21 01:18:01;;;;;;;71.55;31.77;;;6.90;99.90;;;;;;5009887;28;20041;-81
2021/11/21 01:20:30;;;;;;;71.35;31.25;;;6.90;99.90;;;;;;5010614;28;20061;-83
2021/11/21 01:22:57;;;;;;;67.78;30.83;;;6.90;99.90;;;;;;5008821;28;20056;-83
2021/11/21 01:25:25;;;;;;;69.75;29.95;;;6.90;99.90;;;;;;5009559;28;20049;-82
2021/11/21 01:27:53;;;;;;;69.22;30.45;;;6.90;99.90;;;;;;5007391;28;20419;-83
2021/11/21 01:30:26;;;;;;;67.20;30.75;;;6.90;99.90;;;;;;4978637;28;20045;-82
2021/11/21 01:32:54;;;;;;;65.22;30.73;;;6.90;99.90;;;;;;5014331;28;20053;-80
2021/11/21 01:35:23;;;;;;;65.75;29.90;;;6.90;99.90;;;;;;5013269;28;20048;-82
2021/11/21 01:37:50;;;;;;;76.72;29.95;;;7.00;99.90;;;;;;5013852;28;20060;-83
2021/11/21 01:40:19;;;;;;;71.80;28.58;;;6.90;99.90;;;;;;5012012;28;20072;-82
2021/11/21 01:42:48;;;;;;;62.05;25.73;;;6.90;99.90;;;;;;5002187;28;20419;-83
2021/11/21 01:45:16;;;;;;;62.60;27.58;;;6.90;99.90;;;;;;5008065;28;20056;-82
2021/11/21 01:47:48;;;;;;;60.85;26.98;;;6.90;99.90;;;;;;5031823;28;20053;-82
2021/11/21 01:50:23;;;;;;;60.33;27.92;;;6.90;99.90;;;;;;5013063;28;20064;-82
2021/11/21 01:52:50;;;;;;;57.47;26.17;;;7.00;99.90;;;;;;4998668;28;20045;-81
2021/11/21 01:55:17;;;;;;;54.60;26.17;;;6.90;99.90;;;;;;5028638;28;20053;-82
2021/11/21 01:57:51;;;;;;;65.90;27.60;;;6.90;99.90;;;;;;4999102;28;20051;-83
2021/11/21 02:00:18;;;;;;;58.53;25.25;;;7.00;99.90;;;;;;5014257;28;20053;-81
2021/11/21 02:02:45;;;;;;;66.80;27.33;;;7.00;99.90;;;;;;5014219;28;20054;-83
2021/11/21 02:05:13;;;;;;;62.75;26.05;;;7.00;99.90;;;;;;5012693;28;20099;-82
2021/11/21 02:07:42;;;;;;;76.78;30.40;;;6.90;99.90;;;;;;5013006;28;20068;-82
2021/11/21 02:10:12;;;;;;;88.97;32.80;;;6.90;99.90;;;;;;4996258;28;20073;-82
2021/11/21 02:12:40;;;;;;;82.90;28.67;;;6.80;99.90;;;;;;5019332;28;20071;-80
2021/11/21 02:15:12;;;;;;;76.88;30.13;;;6.80;99.90;;;;;;5022857;28;20463;-82
2021/11/21 02:17:39;;;;;;;95.78;32.20;;;6.80;99.90;;;;;;5030872;28;20057;-80
2021/11/21 02:20:08;;;;;;;86.50;29.17;;;6.80;99.90;;;;;;5000213;28;20073;-81
2021/11/21 02:22:40;;;;;;;94.65;34.17;;;6.80;99.90;;;;;;4992019;28;20053;-79
2021/11/21 02:25:09;;;;;;;84.63;29.33;;;6.70;99.90;;;;;;4993992;28;20060;-79
2021/11/21 02:27:36;;;;;;;94.72;32.95;;;6.70;99.90;;;;;;4976334;28;20434;-81
2021/11/21 02:30:06;;;;;;;90.75;32.38;;;6.70;99.90;;;;;;4986987;28;20104;-80
2021/11/21 02:32:33;;;;;;;86.15;32.95;;;6.70;99.90;;;;;;5013708;28;20049;-81
2021/11/21 02:35:00;;;;;;;92.93;32.70;;;6.70;99.90;;;;;;5013910;28;20037;-81
2021/11/21 02:37:27;;;;;;;83.00;29.30;;;6.70;99.90;;;;;;5021513;28;20046;-79
2021/11/21 02:39:54;;;;;;;91.18;30.10;;;6.70;99.90;;;;;;4998162;28;20103;-82
2021/11/21 02:42:35;;;;;;;92.82;32.17;;;6.70;99.90;;;;;;5024906;28;20049;-79
2021/11/21 02:45:10;;;;;;;87.53;30.48;;;6.70;99.90;;;;;;5028507;28;20075;-80
2021/11/21 02:47:37;;;;;;;89.55;30.00;;;6.70;99.90;;;;;;5028528;28;20654;-81
2021/11/21 02:50:09;;;;;;;92.45;31.05;;;6.70;99.90;;;;;;5007057;28;20042;-79
2021/11/21 02:52:36;;;;;;;108.07;30.63;;;6.70;99.90;;;;;;4992884;28;20145;-81
2021/11/21 02:55:03;;;;;;;106.38;31.88;;;6.70;99.90;;;;;;4976710;28;20041;-81
2021/11/21 02:57:30;;;;;;;100.35;30.83;;;6.80;99.90;;;;;;5015580;28;20056;-81
2021/11/21 02:59:57;;;;;;;103.20;31.40;;;6.80;99.90;;;;;;5025478;28;20045;-81
2021/11/21 03:02:24;;;;;;;87.13;28.42;;;6.80;99.90;;;;;;5009981;28;20049;-82
2021/11/21 03:04:52;;;;;;;103.90;29.95;;;6.80;99.90;;;;;;4986928;28;20081;-82
2021/11/21 03:07:20;;;;;;;105.40;30.35;;;6.80;99.90;;;;;;4990979;28;20068;-82
2021/11/21 03:09:51;;;;;;;98.97;28.30;;;6.80;99.90;;;;;;4990341;28;20419;-79
2021/11/21 03:12:20;;;;;;;93.97;30.42;;;6.80;99.90;;;;;;4992405;28;20140;-82
2021/11/21 03:14:47;;;;;;;96.30;27.27;;;6.80;99.90;;;;;;4992094;28;20045;-82
2021/11/21 03:17:14;;;;;;;101.82;29.50;;;6.80;99.90;;;;;;4990923;28;20054;-83
2021/11/21 03:19:41;;;;;;;87.78;28.15;;;6.80;99.90;;;;;;4992611;28;20056;-81
2021/11/21 03:22:09;;;;;;;96.45;29.00;;;6.80;99.90;;;;;;5008965;28;20049;-80
2021/11/21 03:24:36;;;;;;;79.85;24.77;;;6.80;99.90;;;;;;5012217;28;20056;-84
2021/11/21 03:27:03;;;;;;;88.15;27.88;;;6.70;99.90;;;;;;5011126;28;20060;-83
2021/11/21 03:29:30;;;;;;;89.90;30.15;;;6.70;99.90;;;;;;5011272;28;20199;-84
2021/11/21 03:31:57;;;;;;;99.78;31.42;;;6.70;99.90;;;;;;4994815;28;20144;-82
2021/11/21 03:34:25;;;;;;;87.05;26.10;;;6.70;99.90;;;;;;4993091;28;20077;-82
2021/11/21 03:36:52;;;;;;;98.55;31.55;;;6.70;99.90;;;;;;5000862;28;20038;-81
2021/11/21 03:39:19;;;;;;;96.35;30.55;;;6.80;99.90;;;;;;5020177;28;20064;-80
2021/11/21 03:41:46;;;;;;;99.57;31.65;;;6.70;99.90;;;;;;4992651;28;20053;-79
2021/11/21 03:44:12;;;;;;;81.90;27.70;;;6.70;99.90;;;;;;5025822;28;20053;-78
2021/11/21 03:46:40;;;;;;;86.20;26.65;;;6.70;99.90;;;;;;5009669;28;20431;-83
2021/11/21 03:49:07;;;;;;;84.82;28.08;;;6.70;99.90;;;;;;5011203;28;20050;-83
2021/11/21 03:51:34;;;;;;;99.10;28.90;;;6.60;99.90;;;;;;5011006;28;20041;-81
2021/11/21 03:54:01;;;;;;;89.75;29.02;;;6.70;99.90;;;;;;5010928;28;20111;-81
2021/11/21 03:56:29;;;;;;;75.70;27.77;;;6.70;99.90;;;;;;5010039;28;20041;-84
2021/11/21 03:58:56;;;;;;;80.90;27.95;;;6.70;99.90;;;;;;4994298;28;20053;-83
2021/11/21 04:01:23;;;;;;;101.72;32.47;;;6.70;99.90;;;;;;5026933;28;20132;-81
2021/11/21 04:03:50;;;;;;;93.55;30.45;;;6.60;99.90;;;;;;5010691;28;20077;-83
2021/11/21 04:06:17;;;;;;;117.75;34.42;;;6.70;99.90;;;;;;4989489;28;20131;-81
2021/11/21 04:08:44;;;;;;;118.15;33.40;;;6.70;99.90;;;;;;4989857;28;20046;-81
2021/11/21 04:11:11;;;;;;;111.65;33.78;;;6.70;99.90;;;;;;5023220;28;20419;-83
2021/11/21 04:13:38;;;;;;;105.25;34.08;;;6.70;99.90;;;;;;4992608;28;20511;-79
2021/11/21 04:16:05;;;;;;;114.40;35.05;;;6.70;99.90;;;;;;4992194;28;20057;-82
2021/11/21 04:18:33;;;;;;;93.93;30.27;;;6.70;99.90;;;;;;5025702;28;20055;-83
2021/11/21 04:21:00;;;;;;;92.50;28.25;;;6.60;99.90;;;;;;5026657;28;20054;-82
2021/11/21 04:23:30;;;;;;;86.80;30.48;;;6.70;99.90;;;;;;5010485;28;20103;-82
2021/11/21 04:25:58;;;;;;;95.25;32.17;;;6.70;99.90;;;;;;4994246;28;20049;-81
2021/11/21 04:28:25;;;;;;;107.65;31.92;;;6.60;99.90;;;;;;5008704;28;20075;-81
2021/11/21 04:30:53;;;;;;;106.28;33.97;;;6.60;99.90;;;;;;5026929;28;20041;-82
2021/11/21 04:33:23;;;;;;;94.07;32.65;;;6.70;99.90;;;;;;4988334;28;20049;-82
2021/11/21 04:35:51;;;;;;;125.93;37.00;;;6.60;99.90;;;;;;4985442;28;20052;-80
2021/11/21 04:38:20;;;;;;;135.55;36.47;;;6.60;99.90;;;;;;4990090;28;20052;-81
2021/11/21 04:40:48;;;;;;;137.45;39.08;;;6.70;99.90;;;;;;5004599;28;20054;-82
2021/11/21 04:43:15;;;;;;;127.57;37.22;;;6.60;99.90;;;;;;5013400;28;20053;-84
2021/11/21 04:45:42;;;;;;;119.47;38.72;;;6.60;99.90;;;;;;5008695;28;20060;-84
2021/11/21 04:48:10;;;;;;;125.97;39.42;;;6.60;99.90;;;;;;4993928;28;20185;-82
2021/11/21 04:50:37;;;;;;;131.30;39.22;;;6.60;99.90;;;;;;4971694;28;20046;-80
2021/11/21 04:53:05;;;;;;;145.82;42.97;;;6.70;99.90;;;;;;4990741;28;20070;-82
2021/11/21 04:55:36;;;;;;;134.52;42.92;;;6.70;99.90;;;;;;4996533;28;20041;-82
2021/11/21 04:58:03;;;;;;;159.70;43.47;;;6.70;99.90;;;;;;4996759;28;20041;-83
2021/11/21 05:00:30;;;;;;;154.95;43.22;;;6.70;99.90;;;;;;4996013;28;20072;-81
2021/11/21 05:02:57;;;;;;;138.15;39.95;;;6.60;99.90;;;;;;5007904;28;20057;-81
2021/11/21 05:05:25;;;;;;;147.23;40.42;;;6.60;99.90;;;;;;5014656;28;20050;-82
2021/11/21 05:07:52;;;;;;;149.88;43.58;;;6.60;99.90;;;;;;5000747;28;20057;-82
2021/11/21 05:10:20;;;;;;;152.23;45.33;;;6.60;99.90;;;;;;5000033;28;20047;-83
2021/11/21 05:12:50;;;;;;;146.27;41.45;;;6.60;99.90;;;;;;5022856;28;20037;-82
2021/11/21 05:15:20;;;;;;;143.25;40.75;;;6.60;99.90;;;;;;5006798;28;20453;-81
2021/11/21 05:17:48;;;;;;;152.02;42.83;;;6.50;99.90;;;;;;4999504;28;20407;-82
2021/11/21 05:20:17;;;;;;;151.50;40.53;;;6.60;99.90;;;;;;4999972;28;20059;-81
2021/11/21 05:22:46;;;;;;;163.93;42.58;;;6.60;99.90;;;;;;5033470;28;20109;-81
2021/11/21 05:25:14;;;;;;;151.23;38.38;;;6.60;99.90;;;;;;4994291;28;20041;-81
2021/11/21 05:27:49;;;;;;;135.20;35.67;;;6.60;99.90;;;;;;4975721;28;20054;-82
2021/11/21 05:30:19;;;;;;;124.38;36.25;;;6.60;99.90;;;;;;4976288;28;20054;-83
2021/11/21 05:32:46;;;;;;;100.70;30.80;;;6.60;99.90;;;;;;4966889;28;20514;-83
2021/11/21 05:35:16;;;;;;;100.53;30.52;;;6.60;99.90;;;;;;4978998;28;20156;-81
2021/11/21 05:37:44;;;;;;;89.68;29.73;;;6.60;99.90;;;;;;4996892;28;20911;-83
2021/11/21 05:40:15;;;;;;;93.10;29.35;;;6.60;99.90;;;;;;4976049;28;20042;-81
2021/11/21 05:42:43;;;;;;;92.43;29.30;;;6.60;99.90;;;;;;4998609;28;20089;-81
2021/11/21 05:45:10;;;;;;;102.38;28.92;;;6.50;99.90;;;;;;4977203;28;20066;-82
2021/11/21 05:47:37;;;;;;;77.03;26.10;;;6.50;99.90;;;;;;4981626;28;20076;-81
2021/11/21 05:50:12;;;;;;;92.07;28.65;;;6.50;99.90;;;;;;4987836;28;20371;-82
2021/11/21 05:52:45;;;;;;;68.47;23.73;;;6.50;99.90;;;;;;5009970;28;20292;-81
2021/11/21 05:55:13;;;;;;;77.00;26.05;;;6.50;99.90;;;;;;5014658;28;20140;-82
2021/11/21 05:57:41;;;;;;;84.07;28.15;;;6.50;99.90;;;;;;5014379;28;20049;-82
2021/11/21 06:00:12;;;;;;;68.22;25.15;;;6.50;99.90;;;;;;5016218;28;20136;-82
2021/11/21 06:02:39;;;;;;;87.38;29.27;;;6.50;99.90;;;;;;5004725;28;20061;-80
2021/11/21 06:05:08;;;;;;;92.55;29.42;;;6.50;99.90;;;;;;5014492;28;20057;-79
2021/11/21 06:07:35;;;;;;;99.82;32.17;;;6.50;99.90;;;;;;5020549;28;20076;-80
2021/11/21 06:10:04;;;;;;;120.40;36.03;;;6.60;99.90;;;;;;5005036;28;20053;-80
2021/11/21 06:12:32;;;;;;;114.30;35.28;;;6.60;99.90;;;;;;5012042;28;20502;-80
2021/11/21 06:15:05;;;;;;;117.60;34.88;;;6.60;99.90;;;;;;5026175;28;20038;-83
2021/11/21 06:17:31;;;;;;;131.68;38.22;;;6.50;99.90;;;;;;5015584;28;20048;-83
2021/11/21 06:19:58;;;;;;;147.32;38.15;;;6.50;99.90;;;;;;5043549;28;20088;-81
2021/11/21 06:22:25;;;;;;;140.18;36.50;;;6.50;99.90;;;;;;5018513;28;20033;-83
2021/11/21 06:24:52;;;;;;;139.27;42.20;;;6.50;99.90;;;;;;5006725;28;20068;-80
2021/11/21 06:27:19;;;;;;;146.25;40.17;;;6.50;99.90;;;;;;5034934;28;20080;-80
2021/11/21 06:29:46;;;;;;;146.52;40.17;;;6.50;99.90;;;;;;4994056;28;20459;-82
2021/11/21 06:32:13;;;;;;;139.55;38.25;;;6.60;99.90;;;;;;4993506;28;20053;-82
2021/11/21 06:34:40;;;;;;;176.52;42.95;;;6.50;99.90;;;;;;5012569;28;20048;-81
2021/11/21 06:37:08;;;;;;;161.48;42.10;;;6.50;99.90;;;;;;5010515;28;20041;-82
2021/11/21 06:39:40;;;;;;;147.60;40.40;;;6.50;99.90;;;;;;5011514;28;20053;-80
2021/11/21 06:42:11;;;;;;;147.68;40.72;;;6.60;99.90;;;;;;5010663;28;20053;-84
2021/11/21 06:44:38;;;;;;;164.65;43.80;;;6.50;99.90;;;;;;4994563;28;20042;-81
2021/11/21 06:47:05;;;;;;;147.05;40.88;;;6.60;99.90;;;;;;5026761;28;20049;-81
2021/11/21 06:49:32;;;;;;;145.80;41.67;;;6.60;99.90;;;;;;5009458;28;20058;-83
2021/11/21 06:51:59;;;;;;;122.18;39.00;;;6.60;99.90;;;;;;4983259;28;20042;-82
2021/11/21 06:54:27;;;;;;;156.63;44.97;;;6.60;99.90;;;;;;4988196;28;20476;-81
2021/11/21 06:56:54;;;;;;;150.55;42.95;;;6.60;99.90;;;;;;4984043;28;20042;-81
2021/11/21 06:59:21;;;;;;;152.38;43.42;;;6.60;99.90;;;;;;4991348;28;20276;-82
2021/11/21 07:01:47;;;;;;;140.75;41.47;;;6.60;99.90;;;;;;5027685;28;20053;-81
2021/11/21 07:04:15;;;;;;;131.38;39.50;;;6.60;99.90;;;;;;4991142;28;20495;-82
2021/11/21 07:06:44;;;;;;;168.07;42.60;;;6.60;99.90;;;;;;4987631;28;20069;-82
2021/11/21 07:09:13;;;;;;;152.95;43.40;;;6.60;99.90;;;;;;4979245;28;20045;-82
2021/11/21 07:11:41;;;;;;;161.25;44.47;;;6.60;99.90;;;;;;4985679;28;20148;-81
2021/11/21 07:14:11;;;;;;;162.32;44.42;;;6.60;99.90;;;;;;4997549;28;20103;-83
2021/11/21 07:16:41;;;;;;;166.82;45.67;;;6.60;99.90;;;;;;4998506;28;20049;-81
2021/11/21 07:19:09;;;;;;;125.40;36.70;;;6.60;99.90;;;;;;5041856;28;20060;-83
2021/11/21 07:21:37;;;;;;;124.65;37.33;;;6.60;99.90;;;;;;4999280;28;20479;-82
2021/11/21 07:24:04;;;;;;;131.68;40.35;;;6.60;99.90;;;;;;4990298;28;20057;-81
2021/11/21 07:26:31;;;;;;;132.38;41.90;;;6.60;99.90;;;;;;5001761;28;20041;-82
2021/11/21 07:28:58;;;;;;;124.85;38.75;;;6.60;99.90;;;;;;4989004;28;20400;-81
2021/11/21 07:31:25;;;;;;;109.05;36.25;;;6.60;99.90;;;;;;4990731;28;20046;-83
2021/11/21 07:33:52;;;;;;;116.20;39.35;;;6.60;99.90;;;;;;4963353;28;20671;-83
2021/11/21 07:36:19;;;;;;;125.00;37.70;;;6.60;99.90;;;;;;4983964;28;20038;-82
2021/11/21 07:38:45;;;;;;;119.80;38.38;;;6.60;99.90;;;;;;4954862;28;20057;-81
2021/11/21 07:41:12;;;;;;;135.32;39.72;;;6.60;99.90;;;;;;4957731;28;20061;-83
2021/11/21 07:43:39;;;;;;;143.18;43.83;;;6.60;99.90;;;;;;4984762;28;20038;-80
2021/11/21 07:46:07;;;;;;;144.82;42.58;;;6.60;99.90;;;;;;4954880;28;20050;-81
2021/11/21 07:48:34;;;;;;;129.73;41.85;;;6.60;99.90;;;;;;4971833;28;20054;-80
2021/11/21 07:51:02;;;;;;;99.15;34.30;;;6.70;99.90;;;;;;4963758;28;20607;-80
2021/11/21 07:53:29;;;;;;;111.45;36.95;;;6.60;99.90;;;;;;4971827;28;20507;-78
2021/11/21 07:55:57;;;;;;;111.80;35.72;;;6.60;99.90;;;;;;4988022;28;20058;-82
2021/11/21 07:58:24;;;;;;;115.78;36.67;;;6.70;99.90;;;;;;4972010;28;20050;-80
2021/11/21 08:00:51;;;;;;;114.20;36.45;;;6.70;99.90;;;;;;4972830;28;20057;-80
2021/11/21 08:03:18;;;;;;;110.78;34.17;;;6.70;99.90;;;;;;4973653;28;20060;-81
2021/11/21 08:05:45;;;;;;;102.65;32.92;;;6.70;99.90;;;;;;4969918;28;20050;-81
2021/11/21 08:08:12;;;;;;;88.97;31.48;;;6.70;99.90;;;;;;4975922;28;20050;-81
2021/11/21 08:10:39;;;;;;;82.50;28.33;;;6.70;99.90;;;;;;4976868;28;20053;-80
2021/11/21 08:13:07;;;;;;;87.63;29.77;;;6.70;99.90;;;;;;4982117;28;20100;-81
2021/11/21 08:15:34;;;;;;;68.93;26.00;;;6.70;99.90;;;;;;4988341;28;20049;-80
2021/11/21 08:18:02;;;;;;;73.97;27.80;;;6.70;99.90;;;;;;4993253;28;20056;-81
2021/11/21 08:20:29;;;;;;;90.53;30.85;;;6.70;99.90;;;;;;4977326;28;20527;-80
2021/11/21 08:22:56;;;;;;;83.80;29.73;;;6.80;99.90;;;;;;5008196;28;20052;-79
2021/11/21 08:25:22;;;;;;;68.80;26.73;;;6.80;99.90;;;;;;4990743;28;20038;-80
2021/11/21 08:27:50;;;;;;;65.10;24.88;;;6.80;99.90;;;;;;4972557;28;20504;-81
2021/11/21 08:30:18;;;;;;;70.38;25.70;;;6.80;99.90;;;;;;4972919;28;20042;-81
2021/11/21 08:32:47;;;;;;;72.43;26.67;;;6.80;99.90;;;;;;4972188;28;20716;-80
2021/11/21 08:35:14;;;;;;;84.82;27.80;;;6.90;99.90;;;;;;4978813;28;20117;-79
2021/11/21 08:37:42;;;;;;;72.65;27.48;;;6.90;99.90;;;;;;4954083;28;20516;-80
2021/11/21 08:40:10;;;;;;;66.25;25.10;;;6.90;99.90;;;;;;4984979;28;20045;-80
2021/11/21 08:42:37;;;;;;;75.10;24.52;;;6.90;99.90;;;;;;4990097;28;20069;-79
2021/11/21 08:45:06;;;;;;;75.93;26.67;;;6.90;99.90;;;;;;4970986;28;20093;-79
2021/11/21 08:47:34;;;;;;;73.45;27.23;;;6.90;99.90;;;;;;5016782;28;20446;-79
2021/11/21 08:50:03;;;;;;;87.13;28.65;;;6.90;99.90;;;;;;4992562;28;20049;-80
2021/11/21 08:52:29;;;;;;;83.82;26.98;;;6.90;99.90;;;;;;4992334;28;20050;-80
2021/11/21 08:54:56;;;;;;;70.05;23.88;;;7.00;99.90;;;;;;4993321;28;20144;-79
2021/11/21 08:57:23;;;;;;;62.03;20.80;;;6.90;99.90;;;;;;5005971;28;20050;-81
2021/11/21 08:59:50;;;;;;;71.03;25.92;;;6.90;99.90;;;;;;5007329;28;20460;-79
2021/11/21 09:02:17;;;;;;;93.65;27.83;;;6.80;99.90;;;;;;5007874;28;20045;-81
2021/11/21 09:04:44;;;;;;;108.28;32.92;;;6.80;99.90;;;;;;5007837;28;20160;-80
2021/11/21 09:07:11;;;;;;;100.35;31.08;;;6.80;99.90;;;;;;5024106;28;20053;-80
2021/11/21 09:09:38;;;;;;;105.38;33.67;;;6.80;99.90;;;;;;4992512;28;20155;-78
2021/11/21 09:12:05;;;;;;;117.80;34.40;;;6.80;99.90;;;;;;5005380;28;20721;-80
2021/11/21 09:14:32;;;;;;;138.75;40.13;;;6.80;99.90;;;;;;5009811;28;20280;-81
2021/11/21 09:16:59;;;;;;;140.13;38.95;;;6.80;99.90;;;;;;5010030;28;20240;-79
2021/11/21 09:19:25;;;;;;;130.43;37.85;;;6.80;99.90;;;;;;5008929;28;20060;-79
2021/11/21 09:21:52;;;;;;;133.02;35.88;;;6.80;99.90;;;;;;4992319;28;20060;-79
2021/11/21 09:24:19;;;;;;;144.32;38.65;;;6.80;99.90;;;;;;4989249;28;20917;-79
2021/11/21 09:26:46;;;;;;;147.48;36.80;;;6.90;99.90;;;;;;4989446;28;20058;-79
2021/11/21 09:29:13;;;;;;;122.65;34.63;;;6.90;99.90;;;;;;4987811;28;20050;-81
2021/11/21 09:31:39;;;;;;;121.15;35.38;;;6.80;99.90;;;;;;4989808;28;20057;-78
2021/11/21 09:34:06;;;;;;;167.27;43.60;;;6.80;99.90;;;;;;4986010;28;20088;-80
2021/11/21 09:36:34;;;;;;;204.70;48.63;;;6.80;99.90;;;;;;4986628;28;20057;-79
2021/11/21 09:39:01;;;;;;;182.25;46.78;;;6.90;99.90;;;;;;4972298;28;20038;-79
2021/11/21 09:41:28;;;;;;;207.35;48.03;;;6.90;99.90;;;;;;5000121;28;20682;-79
2021/11/21 09:44:01;;;;;;;174.93;44.65;;;6.90;99.90;;;;;;4996841;28;20500;-79
2021/11/21 09:46:27;;;;;;;152.60;42.45;;;7.00;99.90;;;;;;4969983;28;20476;-79
2021/11/21 09:48:54;;;;;;;136.52;42.38;;;6.90;99.90;;;;;;4958806;28;20108;-80
2021/11/21 09:51:21;;;;;;;136.32;40.97;;;7.00;99.90;;;;;;5004891;28;20137;-78
2021/11/21 09:53:48;;;;;;;132.02;40.58;;;7.00;99.90;;;;;;5005618;28;20610;-80
2021/11/21 09:56:16;;;;;;;113.13;38.38;;;7.00;99.90;;;;;;4988944;28;20069;-78
2021/11/21 09:58:44;;;;;;;117.40;37.83;;;7.00;99.90;;;;;;4970830;28;20046;-79
2021/11/21 10:01:40;;;;;;;99.55;35.72;;;7.00;99.90;;;;;;4972544;28;20057;-79
2021/11/21 10:04:10;;;;;;;109.13;35.95;;;7.10;99.90;;;;;;4969441;28;20456;-79
2021/11/21 10:06:44;;;;;;;104.53;35.63;;;7.00;99.90;;;;;;4974015;28;20057;-79
2021/11/21 10:09:13;;;;;;;111.82;38.47;;;7.00;99.90;;;;;;4990772;28;20069;-80
2021/11/21 10:12:01;;;;;;;105.65;38.20;;;7.10;99.90;;;;;;4991452;28;20095;-80
2021/11/21 10:14:32;;;;;;;101.70;37.05;;;7.10;99.90;;;;;;4972794;28;20072;-81
2021/11/21 10:16:59;;;;;;;97.88;36.08;;;7.10;99.90;;;;;;4999606;28;20065;-79
2021/11/21 10:19:26;;;;;;;113.43;38.47;;;7.10;99.90;;;;;;5009000;28;20102;-80
2021/11/21 10:21:55;;;;;;;99.03;39.20;;;7.20;99.90;;;;;;4991085;28;20050;-79
2021/11/21 10:24:31;;;;;;;101.72;38.08;;;7.20;99.90;;;;;;4991964;28;20050;-80
2021/11/21 10:27:11;;;;;;;99.03;35.72;;;7.20;99.90;;;;;;4983718;28;20062;-79
2021/11/21 10:29:44;;;;;;;96.43;33.10;;;7.20;99.90;;;;;;5004981;28;20798;-80
2021/11/21 10:32:20;;;;;;;85.38;34.08;;;7.20;99.90;;;;;;4991573;28;20042;-80
2021/11/21 10:34:50;;;;;;;86.47;31.95;;;7.30;99.90;;;;;;5000533;28;20226;-79
2021/11/21 10:37:18;;;;;;;70.45;29.33;;;7.30;99.90;;;;;;4989722;28;20052;-80
2021/11/21 10:40:07;;;;;;;68.53;30.70;;;7.20;99.90;;;;;;4990449;28;20050;-81
2021/11/21 10:42:39;;;;;;;71.55;29.25;;;7.20;99.90;;;;;;4970450;28;20500;-80
2021/11/21 10:45:10;;;;;;;80.70;31.55;;;7.30;99.90;;;;;;4974849;28;20755;-79
2021/11/21 10:47:45;;;;;;;85.35;32.47;;;7.30;99.90;;;;;;4965179;28;20112;-80
2021/11/21 10:50:32;;;;;;;80.10;32.15;;;7.30;99.90;;;;;;4976420;28;20038;-80
2021/11/21 10:53:03;;;;;;;76.57;30.80;;;7.40;99.90;;;;;;5013530;28;20049;-80
2021/11/21 10:55:30;;;;;;;65.35;28.48;;;7.50;99.90;;;;;;5010880;28;20060;-80
2021/11/21 10:58:10;;;;;;;59.13;26.67;;;7.50;99.90;;;;;;4994782;28;20034;-80
2021/11/21 11:00:37;;;;;;;63.35;28.80;;;7.50;99.90;;;;;;5026992;28;20420;-79
2021/11/21 11:03:13;;;;;;;58.92;25.63;;;7.50;99.90;;;;;;4996362;28;20180;-80
2021/11/21 11:05:40;;;;;;;59.83;24.35;;;7.50;99.90;;;;;;5011414;28;20048;-82
2021/11/21 11:08:07;;;;;;;50.97;22.70;;;7.50;99.90;;;;;;5010837;28;20068;-80
2021/11/21 11:10:36;;;;;;;48.17;22.70;;;7.50;99.90;;;;;;5026426;28;20045;-79
2021/11/21 11:13:06;;;;;;;65.18;25.55;;;7.40;99.90;;;;;;4995617;28;20663;-80
2021/11/21 11:15:41;;;;;;;50.80;24.42;;;7.50;99.90;;;;;;5011039;28;20045;-81
2021/11/21 11:18:11;;;;;;;60.13;25.58;;;7.60;99.90;;;;;;5008972;28;20045;-79
2021/11/21 11:20:44;;;;;;;58.22;26.83;;;7.60;99.90;;;;;;5010267;28;20474;-82
2021/11/21 11:23:14;;;;;;;61.03;26.83;;;7.50;99.90;;;;;;5011134;28;20057;-79
2021/11/21 11:25:43;;;;;;;50.88;23.77;;;7.40;99.90;;;;;;4994959;28;20045;-79
2021/11/21 11:28:26;;;;;;;59.38;26.40;;;7.50;99.90;;;;;;5009025;28;20053;-81
2021/11/21 11:30:56;;;;;;;58.60;25.73;;;7.60;99.90;;;;;;5025439;28;20109;-80
2021/11/21 11:33:33;;;;;;;58.17;25.30;;;7.50;99.90;;;;;;5007093;28;20049;-79
2021/11/21 11:36:00;;;;;;;60.72;26.63;;;7.60;99.90;;;;;;5027575;28;20053;-80
2021/11/21 11:38:31;;;;;;;61.15;26.45;;;7.70;99.90;;;;;;5007201;28;20045;-79
2021/11/21 11:41:05;;;;;;;55.25;25.55;;;7.60;99.90;;;;;;5006688;28;20780;-81
2021/11/21 11:43:41;;;;;;;55.42;24.92;;;7.60;99.90;;;;;;4994932;28;20503;-81
2021/11/21 11:46:14;;;;;;;45.55;22.45;;;7.60;99.90;;;;;;5009886;28;20503;-80
2021/11/21 11:48:48;;;;;;;49.58;22.55;;;7.60;99.90;;;;;;5025688;28;20045;-81
2021/11/21 11:51:48;;;;;;;50.30;24.23;;;7.60;99.90;;;;;;5008168;28;20127;-80
2021/11/21 11:54:15;;;;;;;54.83;23.50;;;7.70;99.90;;;;;;5027441;28;20049;-81
2021/11/21 11:56:47;;;;;;;50.67;22.92;;;7.60;99.90;;;;;;5010559;28;20650;-80
2021/11/21 11:59:29;;;;;;;46.13;22.20;;;7.60;99.90;;;;;;4994043;28;20076;-80
2021/11/21 12:02:02;;;;;;;49.05;22.30;;;7.70;99.90;;;;;;5025953;28;20115;-80
2021/11/21 12:04:29;;;;;;;42.58;19.38;;;7.70;99.90;;;;;;5021135;28;20758;-79
2021/11/21 12:07:03;;;;;;;46.63;20.88;;;7.80;99.90;;;;;;4983867;28;20099;-79
2021/11/21 12:09:34;;;;;;;43.15;19.02;;;7.90;99.90;;;;;;4989077;28;20698;-79
2021/11/21 12:12:03;;;;;;;48.97;21.13;;;7.90;99.90;;;;;;4992415;28;20195;-79
2021/11/21 12:14:44;;;;;;;43.13;20.77;;;8.10;99.90;;;;;;5010206;28;20049;-79
2021/11/21 12:17:25;;;;;;;42.28;16.60;;;8.10;99.90;;;;;;5026272;28;20115;-78
2021/11/21 12:19:55;;;;;;;33.80;17.88;;;8.00;99.90;;;;;;5008709;28;20045;-79
2021/11/21 12:22:29;;;;;;;34.72;17.08;;;8.00;99.90;;;;;;4993160;28;20046;-80
2021/11/21 12:25:26;;;;;;;47.22;18.50;;;7.90;99.90;;;;;;5007034;28;20046;-78
2021/11/21 12:27:58;;;;;;;41.20;18.50;;;7.80;99.90;;;;;;4991743;28;20054;-81
2021/11/21 12:30:29;;;;;;;38.40;15.93;;;7.80;99.90;;;;;;4974510;28;20053;-80
2021/11/21 12:33:05;;;;;;;33.00;16.45;;;7.80;99.90;;;;;;5012783;28;20499;-82
2021/11/21 12:35:34;;;;;;;35.20;17.80;;;7.90;99.90;;;;;;5007511;28;20112;-81
2021/11/21 12:38:20;;;;;;;30.27;14.60;;;7.90;99.90;;;;;;5010203;28;20132;-81
2021/11/21 12:40:52;;;;;;;31.13;14.90;;;7.80;99.90;;;;;;5008021;28;20357;-82
2021/11/21 12:43:22;;;;;;;29.33;13.73;;;7.80;99.90;;;;;;4992176;28;20045;-81